TAF LFLS
LFLS 080200Z 0803/0903 09008KT 9999 -RA SCT020 OVC040 PROB40 TEMPO 0803/0809 4000 RA BR OVC007 BECMG 0809/0811 NSW SCT012 BKN020 TEMPO 0813/0819 VRB15KT 2000 -SHSN BKN020TCU FM081900 33008KT 9999 BKN012 PROB30 TEMPO 0819/0903 2000 -SHSN BKN012TCU=
METAR LFLS
LFLS 080230Z AUTO 08008KT 8000 RA FEW010/// SCT025/// OVC041/// ///TCU 04/04 Q1003 TEMPO 4000 RA BR OVC007=
LFLS 080200Z AUTO 05006KT 7000 -RA FEW006/// SCT012/// BKN018/// ///TCU 04/04 Q1004=
LFLS 080130Z AUTO 04005KT 9000 -RA FEW016/// SCT034/// OVC041/// ///TCU 04/04 Q1004=
LFLS 080100Z AUTO 04004KT 7000 RA FEW005/// BKN014/// BKN024/// ///TCU 04/04 Q1004=
LFLS 080030Z AUTO 35002KT 6000 RA OVC013/// ///TCU 04/04 Q1005=
WC LFLS
WS LFLS
WV LFLS